sensor_id;sensor_type;location;lat;lon;timestamp;pressure;altitude;pressure_sealevel;temperature;humidity
59194;BME280;44967;48.598;15.650;2023-05-29T00:00:19;98333.16;;;11.14;71.49
59194;BME280;44967;48.598;15.650;2023-05-29T00:02:47;98324.19;;;11.18;70.92
59194;BME280;44967;48.598;15.650;2023-05-29T00:05:13;98332.00;;;11.23;71.01
59194;BME280;44967;48.598;15.650;2023-05-29T00:07:40;98326.91;;;11.17;70.39
59194;BME280;44967;48.598;15.650;2023-05-29T00:10:08;98325.66;;;11.28;70.46
59194;BME280;44967;48.598;15.650;2023-05-29T00:12:35;98324.81;;;11.26;70.27
59194;BME280;44967;48.598;15.650;2023-05-29T00:15:02;98326.69;;;11.23;70.59
59194;BME280;44967;48.598;15.650;2023-05-29T00:17:31;98326.19;;;11.38;70.00
59194;BME280;44967;48.598;15.650;2023-05-29T00:20:00;98317.22;;;11.17;70.77
59194;BME280;44967;48.598;15.650;2023-05-29T00:22:27;98313.88;;;11.11;70.54
59194;BME280;44967;48.598;15.650;2023-05-29T00:24:53;98313.84;;;11.12;71.36
59194;BME280;44967;48.598;15.650;2023-05-29T00:27:19;98318.91;;;11.18;70.71
59194;BME280;44967;48.598;15.650;2023-05-29T00:29:45;98322.25;;;11.25;70.65
59194;BME280;44967;48.598;15.650;2023-05-29T00:32:11;98329.09;;;11.30;70.02
59194;BME280;44967;48.598;15.650;2023-05-29T00:34:37;98324.19;;;11.18;70.37
59194;BME280;44967;48.598;15.650;2023-05-29T00:37:03;98327.31;;;11.05;71.13
59194;BME280;44967;48.598;15.650;2023-05-29T00:39:29;98317.50;;;11.08;70.59
59194;BME280;44967;48.598;15.650;2023-05-29T00:41:55;98328.88;;;10.82;72.32
59194;BME280;44967;48.598;15.650;2023-05-29T00:44:21;98327.81;;;10.88;71.11
59194;BME280;44967;48.598;15.650;2023-05-29T00:46:49;98324.22;;;10.91;71.65
59194;BME280;44967;48.598;15.650;2023-05-29T00:49:16;98323.56;;;10.84;72.20
59194;BME280;44967;48.598;15.650;2023-05-29T00:51:42;98317.88;;;10.68;72.13
59194;BME280;44967;48.598;15.650;2023-05-29T00:54:11;98321.41;;;10.67;72.61
59194;BME280;44967;48.598;15.650;2023-05-29T00:56:41;98321.47;;;10.66;72.25
59194;BME280;44967;48.598;15.650;2023-05-29T00:59:13;98324.38;;;10.58;72.60
59194;BME280;44967;48.598;15.650;2023-05-29T01:01:39;98312.28;;;10.50;72.98
59194;BME280;44967;48.598;15.650;2023-05-29T01:04:06;98314.63;;;10.59;72.16
59194;BME280;44967;48.598;15.650;2023-05-29T01:06:40;98310.16;;;10.31;73.47
59194;BME280;44967;48.598;15.650;2023-05-29T01:09:06;98309.16;;;10.35;73.48
59194;BME280;44967;48.598;15.650;2023-05-29T01:11:57;98312.81;;;10.31;73.61
59194;BME280;44967;48.598;15.650;2023-05-29T01:14:36;98306.34;;;10.42;72.83
59194;BME280;44967;48.598;15.650;2023-05-29T01:17:22;98310.75;;;10.43;72.76
59194;BME280;44967;48.598;15.650;2023-05-29T01:23:06;98319.66;;;10.38;73.25
59194;BME280;44967;48.598;15.650;2023-05-29T01:25:56;98312.97;;;10.27;73.49
59194;BME280;44967;48.598;15.650;2023-05-29T01:28:26;98318.38;;;10.22;73.78
59194;BME280;44967;48.598;15.650;2023-05-29T01:30:54;98321.53;;;10.35;73.59
59194;BME280;44967;48.598;15.650;2023-05-29T01:33:21;98316.38;;;10.30;73.21
59194;BME280;44967;48.598;15.650;2023-05-29T01:35:47;98308.13;;;10.10;74.13
59194;BME280;44967;48.598;15.650;2023-05-29T01:38:15;98307.97;;;10.16;74.13
59194;BME280;44967;48.598;15.650;2023-05-29T01:40:40;98313.09;;;10.22;73.54
59194;BME280;44967;48.598;15.650;2023-05-29T01:43:07;98311.00;;;10.01;74.10
59194;BME280;44967;48.598;15.650;2023-05-29T01:45:33;98312.09;;;9.94;74.54
59194;BME280;44967;48.598;15.650;2023-05-29T01:47:59;98302.50;;;9.91;74.12
59194;BME280;44967;48.598;15.650;2023-05-29T01:50:25;98302.28;;;9.99;74.49
59194;BME280;44967;48.598;15.650;2023-05-29T01:52:53;98305.94;;;9.95;74.63
59194;BME280;44967;48.598;15.650;2023-05-29T01:55:18;98304.94;;;9.99;74.66
59194;BME280;44967;48.598;15.650;2023-05-29T01:57:45;98303.09;;;10.01;74.77
59194;BME280;44967;48.598;15.650;2023-05-29T02:00:11;98303.78;;;10.08;73.99
59194;BME280;44967;48.598;15.650;2023-05-29T02:02:40;98297.91;;;9.98;74.49
59194;BME280;44967;48.598;15.650;2023-05-29T02:05:07;98295.41;;;9.93;74.29
59194;BME280;44967;48.598;15.650;2023-05-29T02:07:33;98300.84;;;9.87;74.79
59194;BME280;44967;48.598;15.650;2023-05-29T02:09:59;98292.19;;;9.82;75.18
59194;BME280;44967;48.598;15.650;2023-05-29T02:12:25;98295.91;;;9.75;75.04
59194;BME280;44967;48.598;15.650;2023-05-29T02:14:51;98296.91;;;9.71;75.25
59194;BME280;44967;48.598;15.650;2023-05-29T02:17:17;98289.03;;;9.68;75.74
59194;BME280;44967;48.598;15.650;2023-05-29T02:19:45;98298.66;;;9.71;75.17
59194;BME280;44967;48.598;15.650;2023-05-29T02:22:12;98289.00;;;9.71;76.00
59194;BME280;44967;48.598;15.650;2023-05-29T02:24:37;98297.38;;;9.53;75.90
59194;BME280;44967;48.598;15.650;2023-05-29T02:27:03;98296.94;;;9.70;75.54
59194;BME280;44967;48.598;15.650;2023-05-29T02:29:29;98304.84;;;9.70;75.45
59194;BME280;44967;48.598;15.650;2023-05-29T02:31:55;98298.81;;;9.65;75.11
59194;BME280;44967;48.598;15.650;2023-05-29T02:34:20;98292.34;;;9.76;75.03
59194;BME280;44967;48.598;15.650;2023-05-29T02:36:50;98291.41;;;9.79;75.09
59194;BME280;44967;48.598;15.650;2023-05-29T02:39:17;98294.09;;;9.77;74.91
59194;BME280;44967;48.598;15.650;2023-05-29T02:41:44;98287.81;;;9.49;75.30
59194;BME280;44967;48.598;15.650;2023-05-29T02:44:09;98289.66;;;9.45;76.02
59194;BME280;44967;48.598;15.650;2023-05-29T02:46:35;98287.97;;;9.43;75.30
59194;BME280;44967;48.598;15.650;2023-05-29T02:49:00;98296.88;;;9.39;75.45
59194;BME280;44967;48.598;15.650;2023-05-29T02:51:26;98291.84;;;9.28;76.23
59194;BME280;44967;48.598;15.650;2023-05-29T02:53:53;98293.84;;;9.20;76.56
59194;BME280;44967;48.598;15.650;2023-05-29T02:56:19;98289.16;;;9.31;76.73
59194;BME280;44967;48.598;15.650;2023-05-29T02:58:51;98285.25;;;9.12;76.50
59194;BME280;44967;48.598;15.650;2023-05-29T03:01:17;98282.25;;;8.92;77.87
59194;BME280;44967;48.598;15.650;2023-05-29T03:03:44;98288.03;;;9.06;77.21
59194;BME280;44967;48.598;15.650;2023-05-29T03:06:11;98288.03;;;9.06;77.42
59194;BME280;44967;48.598;15.650;2023-05-29T03:08:41;98288.59;;;9.19;76.99
59194;BME280;44967;48.598;15.650;2023-05-29T03:11:13;98282.31;;;9.24;76.05
59194;BME280;44967;48.598;15.650;2023-05-29T03:13:40;98286.59;;;9.28;76.23
59194;BME280;44967;48.598;15.650;2023-05-29T03:16:06;98283.06;;;9.29;75.89
59194;BME280;44967;48.598;15.650;2023-05-29T03:18:34;98276.69;;;9.36;75.85
59194;BME280;44967;48.598;15.650;2023-05-29T03:21:00;98275.81;;;9.37;75.82
59194;BME280;44967;48.598;15.650;2023-05-29T03:23:25;98280.31;;;9.32;75.97
59194;BME280;44967;48.598;15.650;2023-05-29T03:25:51;98279.06;;;9.13;76.73
59194;BME280;44967;48.598;15.650;2023-05-29T03:28:17;98284.88;;;8.92;77.49
59194;BME280;44967;48.598;15.650;2023-05-29T03:30:43;98279.94;;;9.14;77.68
59194;BME280;44967;48.598;15.650;2023-05-29T03:33:09;98284.91;;;9.26;76.75
59194;BME280;44967;48.598;15.650;2023-05-29T03:35:34;98284.88;;;9.27;76.56
59194;BME280;44967;48.598;15.650;2023-05-29T03:38:00;98281.16;;;9.34;76.77
59194;BME280;44967;48.598;15.650;2023-05-29T03:40:25;98294.28;;;9.37;75.95
59194;BME280;44967;48.598;15.650;2023-05-29T03:42:51;98290.28;;;9.21;76.00
59194;BME280;44967;48.598;15.650;2023-05-29T03:45:17;98292.06;;;9.21;76.81
59194;BME280;44967;48.598;15.650;2023-05-29T03:47:42;98295.50;;;9.24;76.56
59194;BME280;44967;48.598;15.650;2023-05-29T03:50:08;98292.03;;;9.22;77.00
59194;BME280;44967;48.598;15.650;2023-05-29T03:52:35;98296.53;;;9.17;76.80
59194;BME280;44967;48.598;15.650;2023-05-29T03:55:02;98296.50;;;9.19;77.29
59194;BME280;44967;48.598;15.650;2023-05-29T03:57:28;98289.16;;;9.31;76.68
59194;BME280;44967;48.598;15.650;2023-05-29T03:59:53;98303.03;;;9.39;76.13
59194;BME280;44967;48.598;15.650;2023-05-29T04:02:19;98300.53;;;9.33;76.52
59194;BME280;44967;48.598;15.650;2023-05-29T04:04:45;98292.38;;;9.44;76.57
59194;BME280;44967;48.598;15.650;2023-05-29T04:07:10;98293.81;;;9.56;76.60
59194;BME280;44967;48.598;15.650;2023-05-29T04:09:36;98306.16;;;9.54;75.71
59194;BME280;44967;48.598;15.650;2023-05-29T04:12:03;98297.25;;;9.58;76.08
59194;BME280;44967;48.598;15.650;2023-05-29T04:14:28;98302.63;;;9.55;76.46
59194;BME280;44967;48.598;15.650;2023-05-29T04:16:55;98299.81;;;9.61;76.49
59194;BME280;44967;48.598;15.650;2023-05-29T04:19:20;98298.75;;;9.68;76.38
59194;BME280;44967;48.598;15.650;2023-05-29T04:21:46;98307.50;;;9.68;75.75
59194;BME280;44967;48.598;15.650;2023-05-29T04:24:14;98311.09;;;9.67;76.54
59194;BME280;44967;48.598;15.650;2023-05-29T04:26:40;98310.94;;;9.72;76.23
59194;BME280;44967;48.598;15.650;2023-05-29T04:29:11;98312.31;;;9.86;75.39
59194;BME280;44967;48.598;15.650;2023-05-29T04:31:38;98319.19;;;9.92;75.80
59194;BME280;44967;48.598;15.650;2023-05-29T04:34:03;98328.69;;;9.99;75.97
59194;BME280;44967;48.598;15.650;2023-05-29T04:36:32;98332.81;;;10.08;75.50
59194;BME280;44967;48.598;15.650;2023-05-29T04:38:59;98332.47;;;10.21;75.58
59194;BME280;44967;48.598;15.650;2023-05-29T04:41:26;98339.41;;;10.25;74.31
59194;BME280;44967;48.598;15.650;2023-05-29T04:43:56;98331.53;;;10.24;75.25
59194;BME280;44967;48.598;15.650;2023-05-29T04:46:23;98328.94;;;10.22;75.68
59194;BME280;44967;48.598;15.650;2023-05-29T04:48:50;98335.78;;;10.29;74.78
59194;BME280;44967;48.598;15.650;2023-05-29T04:51:21;98338.97;;;10.40;74.06
59194;BME280;44967;48.598;15.650;2023-05-29T04:53:47;98343.69;;;10.29;74.35
59194;BME280;44967;48.598;15.650;2023-05-29T04:56:14;98345.88;;;10.45;74.95
59194;BME280;44967;48.598;15.650;2023-05-29T04:58:41;98346.44;;;10.56;74.37
59194;BME280;44967;48.598;15.650;2023-05-29T05:01:07;98349.56;;;10.70;74.49
59194;BME280;44967;48.598;15.650;2023-05-29T05:03:35;98348.34;;;10.80;73.88
59194;BME280;44967;48.598;15.650;2023-05-29T05:06:01;98353.28;;;10.91;73.67
59194;BME280;44967;48.598;15.650;2023-05-29T05:08:31;98354.03;;;10.96;73.37
59194;BME280;44967;48.598;15.650;2023-05-29T05:11:00;98354.69;;;11.02;73.22
59194;BME280;44967;48.598;15.650;2023-05-29T05:13:26;98357.50;;;10.98;73.03
59194;BME280;44967;48.598;15.650;2023-05-29T05:15:52;98363.97;;;11.15;72.31
59194;BME280;44967;48.598;15.650;2023-05-29T05:18:18;98350.22;;;11.32;72.40
59194;BME280;44967;48.598;15.650;2023-05-29T05:20:44;98355.91;;;11.46;71.83
59194;BME280;44967;48.598;15.650;2023-05-29T05:23:10;98353.84;;;11.56;71.58
59194;BME280;44967;48.598;15.650;2023-05-29T05:25:37;98355.34;;;11.63;71.40
59194;BME280;44967;48.598;15.650;2023-05-29T05:28:04;98351.34;;;11.77;70.98
59194;BME280;44967;48.598;15.650;2023-05-29T05:30:30;98351.19;;;11.82;71.18
59194;BME280;44967;48.598;15.650;2023-05-29T05:32:57;98353.31;;;11.97;70.69
59194;BME280;44967;48.598;15.650;2023-05-29T05:35:23;98351.25;;;12.05;70.15
59194;BME280;44967;48.598;15.650;2023-05-29T05:37:49;98358.88;;;12.14;70.10
59194;BME280;44967;48.598;15.650;2023-05-29T05:40:15;98362.84;;;12.27;69.44
59194;BME280;44967;48.598;15.650;2023-05-29T05:42:41;98363.88;;;12.47;69.23
59194;BME280;44967;48.598;15.650;2023-05-29T05:45:07;98356.53;;;12.55;69.24
59194;BME280;44967;48.598;15.650;2023-05-29T05:47:33;98358.53;;;12.71;68.87
59194;BME280;44967;48.598;15.650;2023-05-29T05:49:59;98360.19;;;12.74;68.11
59194;BME280;44967;48.598;15.650;2023-05-29T05:52:25;98364.00;;;12.90;68.13
59194;BME280;44967;48.598;15.650;2023-05-29T05:54:51;98376.91;;;12.99;67.71
59194;BME280;44967;48.598;15.650;2023-05-29T05:57:17;98358.72;;;13.12;67.96
59194;BME280;44967;48.598;15.650;2023-05-29T05:59:43;98362.63;;;13.25;67.53
59194;BME280;44967;48.598;15.650;2023-05-29T06:02:08;98357.50;;;13.20;68.00
59194;BME280;44967;48.598;15.650;2023-05-29T06:04:34;98361.78;;;13.25;68.01
59194;BME280;44967;48.598;15.650;2023-05-29T06:07:00;98368.00;;;13.45;67.38
59194;BME280;44967;48.598;15.650;2023-05-29T06:09:25;98363.06;;;13.58;66.73
59194;BME280;44967;48.598;15.650;2023-05-29T06:11:52;98363.16;;;13.77;66.09
59194;BME280;44967;48.598;15.650;2023-05-29T06:14:17;98362.16;;;13.79;65.72
59194;BME280;44967;48.598;15.650;2023-05-29T06:16:43;98363.97;;;13.99;65.63
59194;BME280;44967;48.598;15.650;2023-05-29T06:19:09;98368.03;;;14.07;65.52
59194;BME280;44967;48.598;15.650;2023-05-29T06:21:34;98368.94;;;14.27;64.92
59194;BME280;44967;48.598;15.650;2023-05-29T06:24:00;98370.31;;;14.37;64.86
59194;BME280;44967;48.598;15.650;2023-05-29T06:26:25;98374.94;;;14.52;64.53
59194;BME280;44967;48.598;15.650;2023-05-29T06:28:52;98372.22;;;14.53;64.48
59194;BME280;44967;48.598;15.650;2023-05-29T06:31:18;98378.84;;;14.63;64.41
59194;BME280;44967;48.598;15.650;2023-05-29T06:33:45;98378.28;;;14.76;64.16
59194;BME280;44967;48.598;15.650;2023-05-29T06:36:10;98385.75;;;14.86;63.35
59194;BME280;44967;48.598;15.650;2023-05-29T06:38:36;98387.00;;;14.98;63.52
59194;BME280;44967;48.598;15.650;2023-05-29T06:41:02;98390.03;;;15.09;63.90
59194;BME280;44967;48.598;15.650;2023-05-29T06:43:28;98392.34;;;15.17;63.25
59194;BME280;44967;48.598;15.650;2023-05-29T06:45:54;98393.91;;;15.39;62.55
59194;BME280;44967;48.598;15.650;2023-05-29T06:48:20;98393.34;;;15.51;62.79
59194;BME280;44967;48.598;15.650;2023-05-29T06:50:49;98397.38;;;15.77;61.64
59194;BME280;44967;48.598;15.650;2023-05-29T06:53:15;98397.88;;;16.02;61.05
59194;BME280;44967;48.598;15.650;2023-05-29T06:55:41;98393.63;;;16.33;60.16
59194;BME280;44967;48.598;15.650;2023-05-29T06:58:07;98394.28;;;17.04;58.74
59194;BME280;44967;48.598;15.650;2023-05-29T07:00:33;98389.78;;;17.68;56.38
59194;BME280;44967;48.598;15.650;2023-05-29T07:02:58;98393.81;;;19.07;52.93
59194;BME280;44967;48.598;15.650;2023-05-29T07:05:26;98395.72;;;20.41;48.39
59194;BME280;44967;48.598;15.650;2023-05-29T07:07:52;98394.16;;;21.63;42.57
59194;BME280;44967;48.598;15.650;2023-05-29T07:10:17;98392.53;;;21.97;40.70
59194;BME280;44967;48.598;15.650;2023-05-29T07:12:43;98399.38;;;22.60;39.66
59194;BME280;44967;48.598;15.650;2023-05-29T07:15:09;98392.28;;;22.59;37.87
59194;BME280;44967;48.598;15.650;2023-05-29T07:17:35;98402.28;;;23.25;37.19
59194;BME280;44967;48.598;15.650;2023-05-29T07:20:01;98403.66;;;23.53;37.74
59194;BME280;44967;48.598;15.650;2023-05-29T07:22:27;98402.78;;;23.63;36.98
59194;BME280;44967;48.598;15.650;2023-05-29T07:24:52;98391.13;;;24.17;36.04
59194;BME280;44967;48.598;15.650;2023-05-29T07:27:18;98392.78;;;23.97;33.83
59194;BME280;44967;48.598;15.650;2023-05-29T07:29:43;98395.19;;;23.24;33.98
59194;BME280;44967;48.598;15.650;2023-05-29T07:32:09;98389.25;;;23.85;34.67
59194;BME280;44967;48.598;15.650;2023-05-29T07:34:36;98392.44;;;24.22;33.61
59194;BME280;44967;48.598;15.650;2023-05-29T07:37:04;98392.72;;;24.93;31.67
59194;BME280;44967;48.598;15.650;2023-05-29T07:39:34;98395.19;;;25.36;32.04
59194;BME280;44967;48.598;15.650;2023-05-29T07:42:01;98394.28;;;25.25;31.94
59194;BME280;44967;48.598;15.650;2023-05-29T07:44:27;98393.34;;;25.06;32.70
59194;BME280;44967;48.598;15.650;2023-05-29T07:46:52;98397.06;;;25.75;31.62
59194;BME280;44967;48.598;15.650;2023-05-29T07:49:19;98397.31;;;25.72;31.89
59194;BME280;44967;48.598;15.650;2023-05-29T07:51:45;98395.66;;;25.90;30.81
59194;BME280;44967;48.598;15.650;2023-05-29T07:54:11;98403.38;;;25.95;31.74
59194;BME280;44967;48.598;15.650;2023-05-29T07:56:37;98390.97;;;26.02;32.04
59194;BME280;44967;48.598;15.650;2023-05-29T07:59:04;98393.94;;;25.89;31.27
59194;BME280;44967;48.598;15.650;2023-05-29T08:01:30;98402.06;;;24.68;32.92
59194;BME280;44967;48.598;15.650;2023-05-29T08:03:56;98395.16;;;24.11;32.43
59194;BME280;44967;48.598;15.650;2023-05-29T08:06:22;98391.28;;;25.19;31.14
59194;BME280;44967;48.598;15.650;2023-05-29T08:08:47;98393.91;;;25.09;31.94
59194;BME280;44967;48.598;15.650;2023-05-29T08:11:13;98399.06;;;24.71;31.96
59194;BME280;44967;48.598;15.650;2023-05-29T08:13:39;98399.44;;;24.46;32.68
59194;BME280;44967;48.598;15.650;2023-05-29T08:16:05;98400.53;;;24.22;33.16
59194;BME280;44967;48.598;15.650;2023-05-29T08:18:31;98406.72;;;24.02;32.63
59194;BME280;44967;48.598;15.650;2023-05-29T08:20:58;98403.72;;;24.27;33.46
59194;BME280;44967;48.598;15.650;2023-05-29T08:23:24;98400.88;;;24.61;33.34
59194;BME280;44967;48.598;15.650;2023-05-29T08:25:50;98402.97;;;23.82;34.16
59194;BME280;44967;48.598;15.650;2023-05-29T08:28:16;98396.03;;;23.69;34.61
59194;BME280;44967;48.598;15.650;2023-05-29T08:30:42;98391.28;;;24.36;32.94
59194;BME280;44967;48.598;15.650;2023-05-29T08:33:08;98390.28;;;25.20;32.88
59194;BME280;44967;48.598;15.650;2023-05-29T08:35:33;98398.91;;;25.04;31.33
59194;BME280;44967;48.598;15.650;2023-05-29T08:37:59;98397.25;;;25.22;31.42
59194;BME280;44967;48.598;15.650;2023-05-29T08:40:25;98392.22;;;25.39;32.10
59194;BME280;44967;48.598;15.650;2023-05-29T08:42:57;98390.38;;;25.39;31.39
59194;BME280;44967;48.598;15.650;2023-05-29T08:45:24;98392.19;;;25.59;32.05
59194;BME280;44967;48.598;15.650;2023-05-29T08:47:53;98392.59;;;25.55;32.02
59194;BME280;44967;48.598;15.650;2023-05-29T08:50:20;98388.13;;;25.44;31.20
59194;BME280;44967;48.598;15.650;2023-05-29T08:52:46;98388.22;;;25.73;31.12
59194;BME280;44967;48.598;15.650;2023-05-29T08:55:13;98390.13;;;24.91;31.03
59194;BME280;44967;48.598;15.650;2023-05-29T08:57:40;98386.31;;;24.73;31.38
59194;BME280;44967;48.598;15.650;2023-05-29T09:00:09;98393.22;;;24.86;31.40
59194;BME280;44967;48.598;15.650;2023-05-29T09:02:42;98387.06;;;25.36;32.35
59194;BME280;44967;48.598;15.650;2023-05-29T09:05:14;98385.88;;;25.28;30.25
59194;BME280;44967;48.598;15.650;2023-05-29T09:07:40;98388.63;;;25.38;31.18
59194;BME280;44967;48.598;15.650;2023-05-29T09:10:07;98385.06;;;25.68;31.16
59194;BME280;44967;48.598;15.650;2023-05-29T09:12:33;98376.69;;;26.00;30.44
59194;BME280;44967;48.598;15.650;2023-05-29T09:15:00;98374.91;;;25.20;30.60
59194;BME280;44967;48.598;15.650;2023-05-29T09:17:30;98378.09;;;25.75;31.09
59194;BME280;44967;48.598;15.650;2023-05-29T09:19:58;98385.69;;;24.28;31.41
59194;BME280;44967;48.598;15.650;2023-05-29T09:22:23;98381.72;;;24.84;30.84
59194;BME280;44967;48.598;15.650;2023-05-29T09:24:49;98387.16;;;25.24;30.99
59194;BME280;44967;48.598;15.650;2023-05-29T09:27:17;98396.75;;;24.66;31.73
59194;BME280;44967;48.598;15.650;2023-05-29T09:29:46;98394.88;;;25.29;31.38
59194;BME280;44967;48.598;15.650;2023-05-29T09:32:15;98391.13;;;24.90;30.84
59194;BME280;44967;48.598;15.650;2023-05-29T09:34:42;98385.72;;;24.90;30.75
59194;BME280;44967;48.598;15.650;2023-05-29T09:37:09;98385.72;;;24.90;31.68
59194;BME280;44967;48.598;15.650;2023-05-29T09:42:08;98376.44;;;24.30;32.20
59194;BME280;44967;48.598;15.650;2023-05-29T09:44:34;98374.44;;;24.64;32.75
59194;BME280;44967;48.598;15.650;2023-05-29T09:47:00;98370.22;;;24.92;33.48
59194;BME280;44967;48.598;15.650;2023-05-29T09:49:26;98380.75;;;24.95;34.07
59194;BME280;44967;48.598;15.650;2023-05-29T09:51:54;98376.63;;;24.18;31.50
59194;BME280;44967;48.598;15.650;2023-05-29T09:54:20;98378.84;;;24.45;32.92
59194;BME280;44967;48.598;15.650;2023-05-29T09:56:46;98381.56;;;24.45;32.62
59194;BME280;44967;48.598;15.650;2023-05-29T09:59:14;98380.53;;;24.46;31.96
59194;BME280;44967;48.598;15.650;2023-05-29T10:01:42;98387.59;;;24.37;32.64
59194;BME280;44967;48.598;15.650;2023-05-29T10:04:08;98374.28;;;24.66;32.87
59194;BME280;44967;48.598;15.650;2023-05-29T10:06:38;98377.06;;;24.55;31.30
59194;BME280;44967;48.598;15.650;2023-05-29T10:09:09;98376.66;;;24.80;31.52
59194;BME280;44967;48.598;15.650;2023-05-29T10:11:38;98371.66;;;24.55;32.01
59194;BME280;44967;48.598;15.650;2023-05-29T10:14:05;98360.69;;;24.15;31.92
59194;BME280;44967;48.598;15.650;2023-05-29T10:16:35;98365.00;;;24.17;31.80
59194;BME280;44967;48.598;15.650;2023-05-29T10:19:06;98376.66;;;24.38;32.31
59194;BME280;44967;48.598;15.650;2023-05-29T10:21:37;98364.91;;;24.70;31.35
59194;BME280;44967;48.598;15.650;2023-05-29T10:24:06;98366.88;;;25.09;29.87
59194;BME280;44967;48.598;15.650;2023-05-29T10:26:36;98368.38;;;25.23;29.67
59194;BME280;44967;48.598;15.650;2023-05-29T10:37:35;98349.75;;;24.16;29.85
59194;BME280;44967;48.598;15.650;2023-05-29T10:40:10;98355.72;;;24.52;30.70
59194;BME280;44967;48.598;15.650;2023-05-29T10:45:04;98357.47;;;24.62;29.56
59194;BME280;44967;48.598;15.650;2023-05-29T10:47:30;98352.34;;;24.80;31.20
59194;BME280;44967;48.598;15.650;2023-05-29T10:49:59;98360.25;;;24.72;31.38
59194;BME280;44967;48.598;15.650;2023-05-29T10:52:26;98356.56;;;24.73;30.56
59194;BME280;44967;48.598;15.650;2023-05-29T10:54:55;98348.66;;;24.60;29.11
59194;BME280;44967;48.598;15.650;2023-05-29T10:57:23;98358.28;;;24.95;30.48
59194;BME280;44967;48.598;15.650;2023-05-29T10:59:58;98359.16;;;25.05;28.97
59194;BME280;44967;48.598;15.650;2023-05-29T11:02:25;98358.00;;;24.77;29.87
59194;BME280;44967;48.598;15.650;2023-05-29T11:05:17;98354.28;;;24.78;30.12
59194;BME280;44967;48.598;15.650;2023-05-29T11:07:51;98349.56;;;25.21;30.18
59194;BME280;44967;48.598;15.650;2023-05-29T11:10:42;98353.22;;;25.11;30.21
59194;BME280;44967;48.598;15.650;2023-05-29T11:13:24;98361.78;;;24.85;28.52
59194;BME280;44967;48.598;15.650;2023-05-29T11:18:52;98347.31;;;24.34;28.75
59194;BME280;44967;48.598;15.650;2023-05-29T11:24:23;98351.03;;;24.95;31.19
59194;BME280;44967;48.598;15.650;2023-05-29T11:26:56;98352.88;;;24.95;29.17
59194;BME280;44967;48.598;15.650;2023-05-29T11:29:23;98355.50;;;24.85;28.32
59194;BME280;44967;48.598;15.650;2023-05-29T11:31:56;98354.44;;;24.97;28.06
59194;BME280;44967;48.598;15.650;2023-05-29T11:34:24;98353.91;;;24.82;27.61
59194;BME280;44967;48.598;15.650;2023-05-29T11:36:53;98353.88;;;24.73;29.91
59194;BME280;44967;48.598;15.650;2023-05-29T11:39:19;98350.06;;;25.06;30.67
59194;BME280;44967;48.598;15.650;2023-05-29T11:41:44;98351.88;;;24.75;27.66
59194;BME280;44967;48.598;15.650;2023-05-29T11:44:13;98351.19;;;24.82;27.96
59194;BME280;44967;48.598;15.650;2023-05-29T11:46:39;98350.09;;;24.64;26.97
59194;BME280;44967;48.598;15.650;2023-05-29T11:49:05;98353.44;;;24.98;27.58
59194;BME280;44967;48.598;15.650;2023-05-29T11:51:31;98345.59;;;24.95;26.89
59194;BME280;44967;48.598;15.650;2023-05-29T11:53:57;98343.72;;;24.45;28.10
59194;BME280;44967;48.598;15.650;2023-05-29T11:56:26;98353.66;;;24.85;28.22
59194;BME280;44967;48.598;15.650;2023-05-29T11:58:52;98343.44;;;24.89;28.77
59194;BME280;44967;48.598;15.650;2023-05-29T12:01:23;98341.19;;;24.94;26.97
59194;BME280;44967;48.598;15.650;2023-05-29T12:03:50;98328.81;;;25.31;27.94
59194;BME280;44967;48.598;15.650;2023-05-29T12:06:16;98337.59;;;25.54;27.63
59194;BME280;44967;48.598;15.650;2023-05-29T12:08:43;98337.56;;;25.14;26.26
59194;BME280;44967;48.598;15.650;2023-05-29T12:11:09;98336.91;;;25.81;25.73
59194;BME280;44967;48.598;15.650;2023-05-29T12:13:35;98332.09;;;25.45;25.14
59194;BME280;44967;48.598;15.650;2023-05-29T12:16:03;98330.44;;;25.13;27.31
59194;BME280;44967;48.598;15.650;2023-05-29T12:18:29;98327.34;;;24.67;28.12
59194;BME280;44967;48.598;15.650;2023-05-29T12:21:03;98330.63;;;24.70;28.51
59194;BME280;44967;48.598;15.650;2023-05-29T12:23:29;98322.88;;;24.77;29.31
59194;BME280;44967;48.598;15.650;2023-05-29T12:25:56;98326.47;;;25.17;28.84
59194;BME280;44967;48.598;15.650;2023-05-29T12:28:22;98324.75;;;25.07;29.59
59194;BME280;44967;48.598;15.650;2023-05-29T12:30:48;98330.53;;;24.93;28.96
59194;BME280;44967;48.598;15.650;2023-05-29T12:33:31;98321.75;;;24.79;30.40
59194;BME280;44967;48.598;15.650;2023-05-29T12:36:05;98323.88;;;25.06;29.47
59194;BME280;44967;48.598;15.650;2023-05-29T12:38:32;98319.59;;;25.04;29.06
59194;BME280;44967;48.598;15.650;2023-05-29T12:40:58;98313.56;;;24.91;28.38
59194;BME280;44967;48.598;15.650;2023-05-29T12:43:24;98304.66;;;24.79;28.55
59194;BME280;44967;48.598;15.650;2023-05-29T12:45:56;98303.06;;;25.47;28.61
59194;BME280;44967;48.598;15.650;2023-05-29T12:48:26;98307.22;;;25.51;29.04
59194;BME280;44967;48.598;15.650;2023-05-29T12:50:52;98306.69;;;25.76;29.26
59194;BME280;44967;48.598;15.650;2023-05-29T12:53:18;98314.22;;;25.53;28.70
59194;BME280;44967;48.598;15.650;2023-05-29T12:55:46;98313.09;;;25.16;29.10
59194;BME280;44967;48.598;15.650;2023-05-29T12:58:13;98317.72;;;24.74;29.49
59194;BME280;44967;48.598;15.650;2023-05-29T13:00:41;98312.84;;;24.68;30.25
59194;BME280;44967;48.598;15.650;2023-05-29T13:03:08;98313.66;;;24.59;30.33
59194;BME280;44967;48.598;15.650;2023-05-29T13:05:34;98305.91;;;24.96;31.42
59194;BME280;44967;48.598;15.650;2023-05-29T13:08:00;98301.66;;;25.03;31.32
59194;BME280;44967;48.598;15.650;2023-05-29T13:10:27;98300.63;;;24.73;30.16
59194;BME280;44967;48.598;15.650;2023-05-29T13:12:54;98307.09;;;24.61;33.46
59194;BME280;44967;48.598;15.650;2023-05-29T13:15:22;98301.38;;;24.13;31.59